createdAt,value
2017-04-28T00:00:17.980Z,9.23
2017-04-28T00:00:44.107Z,9.25
2017-04-28T00:01:10.247Z,9.23
2017-04-28T00:01:36.361Z,9.19
2017-04-28T00:02:02.469Z,9.26
2017-04-28T00:02:28.617Z,9.31
2017-04-28T00:02:54.730Z,9.26
2017-04-28T00:03:20.886Z,9.21
2017-04-28T00:03:47.085Z,9.26
2017-04-28T00:04:13.222Z,9.22
2017-04-28T00:04:39.347Z,9.25
2017-04-28T00:05:05.452Z,9.22
2017-04-28T00:05:31.561Z,9.23
2017-04-28T00:05:57.657Z,9.13
2017-04-28T00:06:23.788Z,9.11
2017-04-28T00:06:49.876Z,9.14
2017-04-28T00:07:15.974Z,9.19
2017-04-28T00:07:42.102Z,9.18
2017-04-28T00:08:08.272Z,9.1
2017-04-28T00:08:34.413Z,9.03
2017-04-28T00:09:00.519Z,9.08
2017-04-28T00:09:26.643Z,9.03
2017-04-28T00:09:52.767Z,9.03
2017-04-28T00:10:18.904Z,8.99
2017-04-28T00:10:44.999Z,9.06
2017-04-28T00:11:11.103Z,8.95
2017-04-28T00:11:37.223Z,9.1
2017-04-28T00:12:03.312Z,9
2017-04-28T00:12:29.444Z,8.94
2017-04-28T00:12:55.566Z,8.95
2017-04-28T00:13:21.710Z,9.03
2017-04-28T00:13:47.886Z,8.92
2017-04-28T00:14:14.067Z,8.92
2017-04-28T00:14:40.157Z,8.85
2017-04-28T00:15:06.306Z,8.91
2017-04-28T00:15:32.419Z,8.87
2017-04-28T00:15:58.524Z,8.88
2017-04-28T00:16:24.620Z,8.94
2017-04-28T00:16:50.709Z,8.82
2017-04-28T00:17:16.815Z,8.88
2017-04-28T00:17:42.994Z,8.94
2017-04-28T00:18:09.157Z,8.89
2017-04-28T00:18:35.257Z,8.97
2017-04-28T00:19:01.413Z,8.89
2017-04-28T00:19:27.549Z,8.91
2017-04-28T00:19:53.650Z,8.92
2017-04-28T00:20:19.773Z,8.87
2017-04-28T00:20:45.938Z,8.95
2017-04-28T00:21:12.037Z,8.89
2017-04-28T00:21:38.125Z,8.84
2017-04-28T00:22:04.329Z,8.85
2017-04-28T00:22:30.434Z,8.87
2017-04-28T00:22:56.517Z,8.89
2017-04-28T00:23:22.613Z,8.91
2017-04-28T00:23:48.774Z,8.92
2017-04-28T00:24:14.916Z,8.94
2017-04-28T00:24:41.110Z,8.95
2017-04-28T00:25:07.242Z,8.85
2017-04-28T00:25:33.357Z,8.94
2017-04-28T00:25:59.443Z,8.88
2017-04-28T00:26:25.578Z,8.82
2017-04-28T00:26:51.671Z,8.89
2017-04-28T00:27:17.759Z,8.85
2017-04-28T00:27:43.890Z,8.88
2017-04-28T00:28:10.049Z,8.88
2017-04-28T00:28:36.183Z,8.99
2017-04-28T00:29:02.307Z,8.87
2017-04-28T00:29:28.468Z,8.85
2017-04-28T00:29:54.578Z,8.99
2017-04-28T00:30:20.696Z,8.88
2017-04-28T00:30:46.830Z,8.89
2017-04-28T00:31:12.943Z,8.99
2017-04-28T00:31:39.036Z,8.85
2017-04-28T00:32:05.129Z,8.94
2017-04-28T00:32:31.230Z,8.87
2017-04-28T00:32:57.417Z,8.94
2017-04-28T00:33:23.524Z,8.92
2017-04-28T00:33:49.645Z,8.92
2017-04-28T00:34:15.803Z,8.92
2017-04-28T00:34:41.942Z,8.89
2017-04-28T00:35:08.036Z,8.84
2017-04-28T00:35:34.168Z,8.88
2017-04-28T00:36:00.260Z,8.87
2017-04-28T00:36:26.347Z,8.88
2017-04-28T00:36:52.456Z,8.81
2017-04-28T00:37:18.551Z,8.73
2017-04-28T00:37:44.805Z,8.85
2017-04-28T00:38:10.923Z,8.84
2017-04-28T00:38:37.091Z,8.84
2017-04-28T00:39:03.249Z,8.84
2017-04-28T00:39:29.387Z,8.85
2017-04-28T00:39:55.525Z,8.88
2017-04-28T00:40:21.658Z,8.91
2017-04-28T00:40:47.805Z,8.85
2017-04-28T00:41:13.917Z,8.95
2017-04-28T00:41:40.048Z,8.84
2017-04-28T00:42:06.146Z,8.82
2017-04-28T00:42:32.258Z,8.76
2017-04-28T00:42:58.435Z,8.7
2017-04-28T00:43:24.574Z,8.71
2017-04-28T00:43:50.738Z,8.78
2017-04-28T00:44:16.881Z,8.78
2017-04-28T00:44:43.018Z,8.84
2017-04-28T00:45:09.121Z,8.73
2017-04-28T00:45:35.245Z,8.7
2017-04-28T00:46:01.330Z,8.63
2017-04-28T00:46:27.460Z,8.6
2017-04-28T00:46:53.592Z,8.58
2017-04-28T00:47:19.675Z,8.66
2017-04-28T00:47:45.799Z,8.56
2017-04-28T00:48:11.957Z,8.58
2017-04-28T00:48:38.123Z,8.66
2017-04-28T00:49:04.293Z,8.66
2017-04-28T00:49:30.424Z,8.66
2017-04-28T00:49:56.514Z,8.63
2017-04-28T00:50:22.628Z,8.63
2017-04-28T00:50:48.791Z,8.61
2017-04-28T00:51:14.884Z,8.66
2017-04-28T00:51:40.998Z,8.61
2017-04-28T00:52:07.126Z,8.66
2017-04-28T00:52:33.252Z,8.64
2017-04-28T00:52:59.389Z,8.66
2017-04-28T00:53:25.515Z,8.64
2017-04-28T00:53:51.671Z,8.66
2017-04-28T00:54:17.814Z,8.6
2017-04-28T00:54:43.986Z,8.58
2017-04-28T00:55:10.074Z,8.61
2017-04-28T00:55:36.177Z,8.6
2017-04-28T00:56:02.300Z,8.64
2017-04-28T00:56:28.413Z,8.66
2017-04-28T00:56:54.566Z,8.6
2017-04-28T00:57:20.696Z,8.6
2017-04-28T00:57:46.804Z,8.63
2017-04-28T00:58:12.952Z,8.7
2017-04-28T00:58:39.082Z,8.6
2017-04-28T00:59:05.246Z,8.66
2017-04-28T00:59:31.412Z,8.58
2017-04-28T00:59:57.507Z,8.66
2017-04-28T01:00:23.635Z,8.64
2017-04-28T01:00:49.766Z,8.61
2017-04-28T01:01:15.848Z,8.67
2017-04-28T01:01:41.946Z,8.61
2017-04-28T01:02:08.105Z,8.51
2017-04-28T01:02:34.219Z,8.61
2017-04-28T01:03:00.363Z,8.61
2017-04-28T01:03:26.492Z,8.64
2017-04-28T01:03:52.638Z,8.63
2017-04-28T01:04:18.748Z,8.61
2017-04-28T01:04:44.932Z,8.6
2017-04-28T01:05:11.029Z,8.64
2017-04-28T01:05:37.153Z,8.63
2017-04-28T01:06:03.269Z,8.53
2017-04-28T01:06:29.386Z,8.61
2017-04-28T01:06:55.488Z,8.6
2017-04-28T01:07:21.581Z,8.64
2017-04-28T01:07:47.734Z,8.58
2017-04-28T01:08:13.826Z,8.56
2017-04-28T01:08:40.026Z,8.64
2017-04-28T01:09:06.138Z,8.67
2017-04-28T01:09:32.320Z,8.52
2017-04-28T01:09:58.445Z,8.58
2017-04-28T01:10:24.584Z,8.63
2017-04-28T01:10:50.707Z,8.63
2017-04-28T01:11:16.820Z,8.69
2017-04-28T01:11:42.955Z,8.63
2017-04-28T01:12:09.050Z,8.69
2017-04-28T01:12:35.217Z,8.61
2017-04-28T01:13:01.361Z,8.63
2017-04-28T01:13:27.485Z,8.58
2017-04-28T01:13:53.573Z,8.63
2017-04-28T01:14:19.672Z,8.58
2017-04-28T01:14:45.805Z,8.63
2017-04-28T01:15:11.943Z,8.63
2017-04-28T01:15:38.043Z,8.63
2017-04-28T01:16:04.172Z,8.52
2017-04-28T01:16:30.261Z,8.55
2017-04-28T01:16:56.388Z,8.44
2017-04-28T01:17:22.475Z,8.58
2017-04-28T01:17:48.650Z,8.56
2017-04-28T01:18:14.836Z,8.52
2017-04-28T01:18:40.947Z,8.44
2017-04-28T01:19:07.069Z,8.45
2017-04-28T01:19:33.228Z,8.53
2017-04-28T01:19:59.341Z,8.53
2017-04-28T01:20:25.484Z,8.51
2017-04-28T01:20:51.588Z,8.52
2017-04-28T01:21:17.750Z,8.53
2017-04-28T01:21:43.813Z,8.51
2017-04-28T01:22:09.916Z,8.41
2017-04-28T01:22:36.035Z,8.45
2017-04-28T01:23:02.138Z,8.42
2017-04-28T01:23:28.255Z,8.49
2017-04-28T01:23:54.424Z,8.46
2017-04-28T01:24:20.527Z,8.41
2017-04-28T01:24:46.669Z,8.42
2017-04-28T01:25:12.782Z,8.46
2017-04-28T01:25:38.887Z,8.45
2017-04-28T01:26:04.983Z,8.48
2017-04-28T01:26:31.072Z,8.48
2017-04-28T01:26:57.198Z,8.55
2017-04-28T01:27:23.322Z,8.44
2017-04-28T01:27:49.451Z,8.58
2017-04-28T01:28:15.590Z,8.58
2017-04-28T01:28:41.704Z,8.49
2017-04-28T01:29:07.863Z,8.53
2017-04-28T01:29:33.984Z,8.51
2017-04-28T01:30:00.144Z,8.55
2017-04-28T01:30:26.275Z,8.6
2017-04-28T01:30:52.401Z,8.64
2017-04-28T01:31:18.489Z,8.58
2017-04-28T01:31:44.639Z,8.56
2017-04-28T01:32:10.769Z,8.45
2017-04-28T01:32:36.877Z,8.37
2017-04-28T01:33:02.996Z,8.45
2017-04-28T01:33:29.102Z,8.45
2017-04-28T01:33:55.239Z,8.44
2017-04-28T01:34:21.332Z,8.45
2017-04-28T01:34:47.463Z,8.48
2017-04-28T01:35:13.582Z,8.44
2017-04-28T01:35:39.669Z,8.33
2017-04-28T01:36:05.800Z,8.41
2017-04-28T01:36:31.894Z,8.41
2017-04-28T01:36:58.007Z,8.36
2017-04-28T01:37:24.109Z,8.37
2017-04-28T01:37:50.260Z,8.36
2017-04-28T01:38:16.399Z,8.31
2017-04-28T01:38:42.550Z,8.31
2017-04-28T01:39:08.692Z,8.33
2017-04-28T01:39:34.854Z,8.3
2017-04-28T01:40:00.976Z,8.31
2017-04-28T01:40:27.088Z,8.3
2017-04-28T01:40:53.193Z,8.27
2017-04-28T01:41:19.289Z,8.26
2017-04-28T01:41:45.403Z,8.15
2017-04-28T01:42:11.525Z,8.16
2017-04-28T01:42:37.652Z,8.3
2017-04-28T01:43:03.787Z,8.2
2017-04-28T01:43:29.960Z,8.27
2017-04-28T01:43:56.062Z,8.2
2017-04-28T01:44:22.175Z,8.27
2017-04-28T01:44:48.276Z,8.26
2017-04-28T01:45:14.389Z,8.27
2017-04-28T01:45:40.516Z,8.27
2017-04-28T01:46:06.677Z,8.3
2017-04-28T01:46:32.758Z,8.27
2017-04-28T01:46:58.880Z,8.27
2017-04-28T01:47:25.011Z,8.3
2017-04-28T01:47:51.177Z,8.31
2017-04-28T01:48:17.391Z,8.37
2017-04-28T01:48:43.548Z,8.27
2017-04-28T01:49:09.691Z,8.28
2017-04-28T01:49:35.779Z,8.31
2017-04-28T01:50:01.930Z,8.33
2017-04-28T01:50:28.028Z,8.28
2017-04-28T01:50:54.159Z,8.3
2017-04-28T01:51:20.273Z,8.27
2017-04-28T01:51:46.392Z,8.34
2017-04-28T01:52:12.549Z,8.36
2017-04-28T01:52:38.638Z,8.37
2017-04-28T01:53:04.749Z,8.38
2017-04-28T01:53:30.934Z,8.27
2017-04-28T01:53:57.079Z,8.33
2017-04-28T01:54:23.213Z,8.31
2017-04-28T01:54:49.368Z,8.13
2017-04-28T01:55:15.466Z,8.18
2017-04-28T01:55:41.588Z,8.19
2017-04-28T01:56:07.676Z,8.19
2017-04-28T01:56:33.761Z,8.16
2017-04-28T01:56:59.869Z,8.2
2017-04-28T01:57:26.045Z,8.2
2017-04-28T01:57:52.184Z,8.27
2017-04-28T01:58:18.312Z,8.28
2017-04-28T01:58:44.492Z,8.2
2017-04-28T01:59:10.582Z,8.28
2017-04-28T01:59:36.705Z,8.18
2017-04-28T02:00:02.863Z,8.19
2017-04-28T02:00:28.947Z,8.18
2017-04-28T02:00:55.065Z,8.23
2017-04-28T02:01:21.155Z,8.18
2017-04-28T02:01:47.258Z,8.24
2017-04-28T02:02:13.383Z,8.24
2017-04-28T02:02:39.485Z,8.15
2017-04-28T02:03:05.595Z,8.24
2017-04-28T02:03:31.726Z,8.15
2017-04-28T02:03:57.883Z,8.26
2017-04-28T02:04:24.034Z,8.15
2017-04-28T02:04:50.219Z,8.15
2017-04-28T02:05:16.308Z,8.3
2017-04-28T02:05:42.404Z,8.27
2017-04-28T02:06:08.560Z,8.24
2017-04-28T02:06:34.679Z,8.28
2017-04-28T02:07:00.831Z,8.28
2017-04-28T02:07:26.939Z,8.28
2017-04-28T02:07:53.136Z,8.31
2017-04-28T02:08:19.297Z,8.28
2017-04-28T02:08:45.409Z,8.31
2017-04-28T02:09:11.503Z,8.33
2017-04-28T02:09:37.607Z,8.24
2017-04-28T02:10:03.723Z,8.27
2017-04-28T02:10:29.812Z,8.24
2017-04-28T02:10:55.917Z,8.31
2017-04-28T02:11:22.012Z,8.31
2017-04-28T02:11:48.099Z,8.28
2017-04-28T02:12:14.203Z,8.23
2017-04-28T02:12:40.318Z,8.27
2017-04-28T02:13:06.478Z,8.26
2017-04-28T02:13:32.616Z,8.16
2017-04-28T02:13:58.729Z,8.3
2017-04-28T02:14:24.886Z,8.28
2017-04-28T02:14:51.008Z,8.27
2017-04-28T02:15:17.119Z,8.28
2017-04-28T02:15:43.220Z,8.3
2017-04-28T02:16:09.373Z,8.3
2017-04-28T02:16:35.461Z,8.27
2017-04-28T02:17:01.585Z,8.23
2017-04-28T02:17:27.801Z,8.28
2017-04-28T02:17:53.911Z,8.16
2017-04-28T02:18:20.008Z,8.19
2017-04-28T02:18:46.140Z,8.2
2017-04-28T02:19:12.279Z,8.16
2017-04-28T02:19:38.422Z,8.18
2017-04-28T02:20:04.579Z,8.18
2017-04-28T02:20:30.693Z,8.12
2017-04-28T02:20:56.805Z,8.1
2017-04-28T02:21:22.910Z,8.15
2017-04-28T02:21:49.059Z,8.13
2017-04-28T02:22:15.126Z,8.19
2017-04-28T02:22:41.246Z,8.19
2017-04-28T02:23:07.370Z,8.2
2017-04-28T02:23:33.519Z,8.18
2017-04-28T02:23:59.661Z,8.19
2017-04-28T02:24:25.812Z,8.12
2017-04-28T02:24:51.901Z,8.12
2017-04-28T02:25:17.995Z,8
2017-04-28T02:25:44.158Z,7.98
2017-04-28T02:26:10.283Z,7.95
2017-04-28T02:26:36.381Z,7.98
2017-04-28T02:27:02.515Z,7.98
2017-04-28T02:27:28.614Z,8
2017-04-28T02:27:54.800Z,7.93
2017-04-28T02:28:20.931Z,7.95
2017-04-28T02:28:47.129Z,7.98
2017-04-28T02:29:13.246Z,7.98
2017-04-28T02:29:39.398Z,7.94
2017-04-28T02:30:05.551Z,7.93
2017-04-28T02:30:31.639Z,7.9
2017-04-28T02:30:57.737Z,7.97
2017-04-28T02:31:23.841Z,7.95
2017-04-28T02:31:49.951Z,7.9
2017-04-28T02:32:16.074Z,7.94
2017-04-28T02:32:42.206Z,7.93
2017-04-28T02:33:08.294Z,7.98
2017-04-28T02:33:34.414Z,8.01
2017-04-28T02:34:00.518Z,8
2017-04-28T02:34:26.606Z,7.98
2017-04-28T02:34:52.734Z,7.98
2017-04-28T02:35:18.840Z,8.01
2017-04-28T02:35:44.962Z,8.03
2017-04-28T02:36:11.064Z,7.97
2017-04-28T02:36:37.179Z,8
2017-04-28T02:37:03.321Z,7.93
2017-04-28T02:37:29.425Z,7.95
2017-04-28T02:37:55.569Z,7.85
2017-04-28T02:38:21.655Z,7.8
2017-04-28T02:38:47.873Z,7.82
2017-04-28T02:39:14.047Z,7.79
2017-04-28T02:39:40.210Z,7.77
2017-04-28T02:40:06.367Z,7.79
2017-04-28T02:40:32.505Z,7.87
2017-04-28T02:40:58.638Z,7.73
2017-04-28T02:41:24.778Z,7.83
2017-04-28T02:41:50.890Z,7.79
2017-04-28T02:42:17.081Z,7.8
2017-04-28T02:42:43.200Z,7.83
2017-04-28T02:43:09.361Z,7.87
2017-04-28T02:43:35.517Z,7.82
2017-04-28T02:44:01.669Z,7.79
2017-04-28T02:44:27.757Z,7.82
2017-04-28T02:44:53.857Z,7.7
2017-04-28T02:45:19.960Z,7.73
2017-04-28T02:45:46.101Z,7.79
2017-04-28T02:46:12.222Z,7.79
2017-04-28T02:46:38.308Z,7.77
2017-04-28T02:47:04.412Z,7.69
2017-04-28T02:47:30.509Z,7.77
2017-04-28T02:47:56.597Z,7.77
2017-04-28T02:48:22.742Z,7.66
2017-04-28T02:48:48.847Z,7.69
2017-04-28T02:49:14.954Z,7.72
2017-04-28T02:49:41.103Z,7.73
2017-04-28T02:50:07.233Z,7.72
2017-04-28T02:50:33.343Z,7.67
2017-04-28T02:50:59.462Z,7.76
2017-04-28T02:51:25.582Z,7.63
2017-04-28T02:51:51.681Z,7.72
2017-04-28T02:52:17.786Z,7.75
2017-04-28T02:52:43.898Z,7.7
2017-04-28T02:53:10.044Z,7.66
2017-04-28T02:53:36.175Z,7.56
2017-04-28T02:54:02.341Z,7.5
2017-04-28T02:54:28.493Z,7.6
2017-04-28T02:54:54.614Z,7.67
2017-04-28T02:55:20.703Z,7.66
2017-04-28T02:55:46.791Z,7.6
2017-04-28T02:56:12.955Z,7.61
2017-04-28T02:56:39.128Z,7.61
2017-04-28T02:57:05.226Z,7.66
2017-04-28T02:57:31.314Z,7.73
2017-04-28T02:57:57.431Z,7.6
2017-04-28T02:58:23.622Z,7.53
2017-04-28T02:58:49.757Z,7.53
2017-04-28T02:59:15.896Z,7.58
2017-04-28T02:59:42.084Z,7.5
2017-04-28T03:00:08.259Z,7.61
2017-04-28T03:00:34.395Z,7.53
2017-04-28T03:01:00.498Z,7.51
2017-04-28T03:01:26.593Z,7.48
2017-04-28T03:01:52.856Z,7.42
2017-04-28T03:02:18.955Z,7.45
2017-04-28T03:02:45.143Z,7.5
2017-04-28T03:03:11.249Z,7.51
2017-04-28T03:03:37.402Z,7.43
2017-04-28T03:04:03.588Z,7.39
2017-04-28T03:04:29.725Z,7.47
2017-04-28T03:04:55.847Z,7.25
2017-04-28T03:05:21.977Z,7.31
2017-04-28T03:05:48.108Z,7.48
2017-04-28T03:06:14.192Z,7.42
2017-04-28T03:06:40.298Z,7.48
2017-04-28T03:07:06.420Z,7.4
2017-04-28T03:07:32.560Z,7.45
2017-04-28T03:07:58.717Z,7.43
2017-04-28T03:08:24.907Z,7.47
2017-04-28T03:08:51.095Z,7.47
2017-04-28T03:09:17.261Z,7.48
2017-04-28T03:09:43.397Z,7.45
2017-04-28T03:10:09.530Z,7.38
2017-04-28T03:10:35.623Z,7.42
2017-04-28T03:11:01.735Z,7.4
2017-04-28T03:11:27.836Z,7.48
2017-04-28T03:11:53.934Z,7.42
2017-04-28T03:12:20.046Z,7.48
2017-04-28T03:12:46.172Z,7.4
2017-04-28T03:13:12.325Z,7.43
2017-04-28T03:13:38.464Z,7.45
2017-04-28T03:14:04.609Z,7.47
2017-04-28T03:14:30.696Z,7.4
2017-04-28T03:14:56.801Z,7.4
2017-04-28T03:15:22.925Z,7.38
2017-04-28T03:15:49.012Z,7.35
2017-04-28T03:16:15.113Z,7.43
2017-04-28T03:16:41.215Z,7.31
2017-04-28T03:17:07.322Z,7.42
2017-04-28T03:17:33.445Z,7.38
2017-04-28T03:17:59.605Z,7.32
2017-04-28T03:18:25.717Z,7.38
2017-04-28T03:18:51.861Z,7.43
2017-04-28T03:19:17.978Z,7.47
2017-04-28T03:19:44.129Z,7.42
2017-04-28T03:20:10.232Z,7.5
2017-04-28T03:20:36.339Z,7.4
2017-04-28T03:21:02.486Z,7.43
2017-04-28T03:21:28.587Z,7.47
2017-04-28T03:21:54.728Z,7.42
2017-04-28T03:22:20.846Z,7.42
2017-04-28T03:22:46.977Z,7.5
2017-04-28T03:23:13.069Z,7.38
2017-04-28T03:23:39.228Z,7.47
2017-04-28T03:24:05.413Z,7.43
2017-04-28T03:24:31.617Z,7.42
2017-04-28T03:24:57.744Z,7.43
2017-04-28T03:25:23.858Z,7.35
2017-04-28T03:25:49.952Z,7.4
2017-04-28T03:26:16.055Z,7.35
2017-04-28T03:26:42.146Z,7.32
2017-04-28T03:27:08.258Z,7.23
2017-04-28T03:27:34.419Z,7.28
2017-04-28T03:28:00.595Z,7.28
2017-04-28T03:28:26.705Z,7.25
2017-04-28T03:28:52.837Z,7.21
2017-04-28T03:29:18.959Z,7.18
2017-04-28T03:29:45.117Z,7.15
2017-04-28T03:30:11.218Z,7.25
2017-04-28T03:30:37.329Z,7.2
2017-04-28T03:31:03.460Z,7.17
2017-04-28T03:31:29.554Z,7.32
2017-04-28T03:31:55.642Z,7.2
2017-04-28T03:32:21.747Z,7.17
2017-04-28T03:32:47.926Z,7.2
2017-04-28T03:33:14.086Z,7.18
2017-04-28T03:33:40.240Z,7.15
2017-04-28T03:34:06.398Z,7.14
2017-04-28T03:34:32.529Z,7.06
2017-04-28T03:34:58.677Z,7.1
2017-04-28T03:35:24.835Z,7.02
2017-04-28T03:35:50.923Z,6.89
2017-04-28T03:36:17.072Z,6.99
2017-04-28T03:36:43.183Z,6.97
2017-04-28T03:37:09.283Z,7.05
2017-04-28T03:37:35.439Z,7
2017-04-28T03:38:01.596Z,7.1
2017-04-28T03:38:27.743Z,7.14
2017-04-28T03:38:53.899Z,7.06
2017-04-28T03:39:20.041Z,7.07
2017-04-28T03:39:46.158Z,7.06
2017-04-28T03:40:12.261Z,7.07
2017-04-28T03:40:38.380Z,7.15
2017-04-28T03:41:04.490Z,7.13
2017-04-28T03:41:30.591Z,7.18
2017-04-28T03:41:56.711Z,7.21
2017-04-28T03:42:22.815Z,7.15
2017-04-28T03:42:48.900Z,7.17
2017-04-28T03:43:14.994Z,7.18
2017-04-28T03:43:41.123Z,7.1
2017-04-28T03:44:07.262Z,7.11
2017-04-28T03:44:33.373Z,7.14
2017-04-28T03:44:59.478Z,7.13
2017-04-28T03:45:25.583Z,7.13
2017-04-28T03:45:51.684Z,7.14
2017-04-28T03:46:17.816Z,7.07
2017-04-28T03:46:43.940Z,7.03
2017-04-28T03:47:10.029Z,7.11
2017-04-28T03:47:36.154Z,7.11
2017-04-28T03:48:02.368Z,7.05
2017-04-28T03:48:28.500Z,7.17
2017-04-28T03:48:54.672Z,7.11
2017-04-28T03:49:20.835Z,7.07
2017-04-28T03:49:46.967Z,7.06
2017-04-28T03:50:13.087Z,7.15
2017-04-28T03:50:39.245Z,7.24
2017-04-28T03:51:05.334Z,7.18
2017-04-28T03:51:31.457Z,7.24
2017-04-28T03:51:57.591Z,7.18
2017-04-28T03:52:23.713Z,7.21
2017-04-28T03:52:49.869Z,7.2
2017-04-28T03:53:16.011Z,7.23
2017-04-28T03:53:42.155Z,7.14
2017-04-28T03:54:08.340Z,7.24
2017-04-28T03:54:34.506Z,7.15
2017-04-28T03:55:00.618Z,7.17
2017-04-28T03:55:26.751Z,7.14
2017-04-28T03:55:52.845Z,7.07
2017-04-28T03:56:18.933Z,7.1
2017-04-28T03:56:45.113Z,7.1
2017-04-28T03:57:11.266Z,7.02
2017-04-28T03:57:37.404Z,7.05
2017-04-28T03:58:03.559Z,7.06
2017-04-28T03:58:29.700Z,6.96
2017-04-28T03:58:55.806Z,6.95
2017-04-28T03:59:21.980Z,6.99
2017-04-28T03:59:48.114Z,6.96
2017-04-28T04:00:14.270Z,6.99
2017-04-28T04:00:40.395Z,6.99
2017-04-28T04:01:06.479Z,7.11
2017-04-28T04:01:32.580Z,7.13
2017-04-28T04:01:58.711Z,7.06
2017-04-28T04:02:24.843Z,7.05
2017-04-28T04:02:51.015Z,6.99
2017-04-28T04:03:17.175Z,7.06
2017-04-28T04:03:43.287Z,7
2017-04-28T04:04:09.439Z,6.97
2017-04-28T04:04:35.601Z,7.05
2017-04-28T04:05:01.700Z,7
2017-04-28T04:05:27.802Z,7
2017-04-28T04:05:53.908Z,6.88
2017-04-28T04:06:20.006Z,6.89
2017-04-28T04:06:46.109Z,6.85
2017-04-28T04:07:12.221Z,6.88
2017-04-28T04:07:38.367Z,6.96
2017-04-28T04:08:04.547Z,6.95
2017-04-28T04:08:30.717Z,6.92
2017-04-28T04:08:56.854Z,6.87
2017-04-28T04:09:23.035Z,6.81
2017-04-28T04:09:49.156Z,6.81
2017-04-28T04:10:15.313Z,6.7
2017-04-28T04:10:41.399Z,6.78
2017-04-28T04:11:07.493Z,6.69
2017-04-28T04:11:33.650Z,6.77
2017-04-28T04:11:59.768Z,6.78
2017-04-28T04:12:25.853Z,6.63
2017-04-28T04:12:51.985Z,6.72
2017-04-28T04:13:18.157Z,6.59
2017-04-28T04:13:44.294Z,6.62
2017-04-28T04:14:10.421Z,6.56
2017-04-28T04:14:36.517Z,6.56
2017-04-28T04:15:02.638Z,6.49
2017-04-28T04:15:28.728Z,6.49
2017-04-28T04:15:54.841Z,6.48
2017-04-28T04:16:20.973Z,6.45
2017-04-28T04:16:47.065Z,6.33
2017-04-28T04:17:13.152Z,6.36
2017-04-28T04:17:39.254Z,6.31
2017-04-28T04:18:05.350Z,6.26
2017-04-28T04:18:31.509Z,6.3
2017-04-28T04:18:57.633Z,6.24
2017-04-28T04:19:23.791Z,6.24
2017-04-28T04:19:49.950Z,6.26
2017-04-28T04:20:16.102Z,6.22
2017-04-28T04:20:42.217Z,6.22
2017-04-28T04:21:08.345Z,6.24
2017-04-28T04:21:34.440Z,6.28
2017-04-28T04:22:00.551Z,6.22
2017-04-28T04:22:26.651Z,6.28
2017-04-28T04:22:52.783Z,6.26
2017-04-28T04:23:18.917Z,6.16
2017-04-28T04:23:45.088Z,6.26
2017-04-28T04:24:11.219Z,6.24
2017-04-28T04:24:37.333Z,6.31
2017-04-28T04:25:03.500Z,6.3
2017-04-28T04:25:29.604Z,6.36
2017-04-28T04:25:55.750Z,6.44
2017-04-28T04:26:21.851Z,6.39
2017-04-28T04:26:47.935Z,6.42
2017-04-28T04:27:14.037Z,6.44
2017-04-28T04:27:40.217Z,6.44
2017-04-28T04:28:06.330Z,6.33
2017-04-28T04:28:32.470Z,6.42
2017-04-28T04:28:58.627Z,6.49
2017-04-28T04:29:24.740Z,6.38
2017-04-28T04:29:50.854Z,6.46
2017-04-28T04:30:16.987Z,6.51
2017-04-28T04:30:43.079Z,6.48
2017-04-28T04:31:09.192Z,6.44
2017-04-28T04:31:35.319Z,6.52
2017-04-28T04:32:01.472Z,6.56
2017-04-28T04:32:27.557Z,6.62
2017-04-28T04:32:53.712Z,6.54
2017-04-28T04:33:19.841Z,6.57
2017-04-28T04:33:45.974Z,6.52
2017-04-28T04:34:12.119Z,6.57
2017-04-28T04:34:38.250Z,6.6
2017-04-28T04:35:04.410Z,6.57
2017-04-28T04:35:30.504Z,6.57
2017-04-28T04:35:56.636Z,6.52
2017-04-28T04:36:22.752Z,6.51
2017-04-28T04:36:48.839Z,6.51
2017-04-28T04:37:14.967Z,6.51
2017-04-28T04:37:41.064Z,6.52
2017-04-28T04:38:07.222Z,6.54
2017-04-28T04:38:33.361Z,6.54
2017-04-28T04:38:59.478Z,6.54
2017-04-28T04:39:25.607Z,6.57
2017-04-28T04:39:51.750Z,6.59
2017-04-28T04:40:17.858Z,6.64
2017-04-28T04:40:43.991Z,6.63
2017-04-28T04:41:10.085Z,6.6
2017-04-28T04:41:36.196Z,6.56
2017-04-28T04:42:02.299Z,6.67
2017-04-28T04:42:28.424Z,6.63
2017-04-28T04:42:54.521Z,6.62
2017-04-28T04:43:20.612Z,6.6
2017-04-28T04:43:46.724Z,6.6
2017-04-28T04:44:12.883Z,6.66
2017-04-28T04:44:38.979Z,6.72
2017-04-28T04:45:05.091Z,6.59
2017-04-28T04:45:31.219Z,6.57
2017-04-28T04:45:57.315Z,6.63
2017-04-28T04:46:23.401Z,6.57
2017-04-28T04:46:49.501Z,6.57
2017-04-28T04:47:15.660Z,6.6
2017-04-28T04:47:41.744Z,6.51
2017-04-28T04:48:07.890Z,6.51
2017-04-28T04:48:33.981Z,6.49
2017-04-28T04:49:00.138Z,6.57
2017-04-28T04:49:26.346Z,6.54
2017-04-28T04:49:52.457Z,6.62
2017-04-28T04:50:18.560Z,6.57
2017-04-28T04:50:44.684Z,6.59
2017-04-28T04:51:10.768Z,6.56
2017-04-28T04:51:36.863Z,6.51
2017-04-28T04:52:02.995Z,6.51
2017-04-28T04:52:29.108Z,6.59
2017-04-28T04:52:55.252Z,6.52
2017-04-28T04:53:21.380Z,6.63
2017-04-28T04:53:47.496Z,6.54
2017-04-28T04:54:13.622Z,6.63
2017-04-28T04:54:39.757Z,6.74
2017-04-28T04:55:05.899Z,6.6
2017-04-28T04:55:32.003Z,6.66
2017-04-28T04:55:58.089Z,6.6
2017-04-28T04:56:24.208Z,6.64
2017-04-28T04:56:50.336Z,6.7
2017-04-28T04:57:16.426Z,6.62
2017-04-28T04:57:42.564Z,6.74
2017-04-28T04:58:08.671Z,6.74
2017-04-28T04:58:34.762Z,6.84
2017-04-28T04:59:00.873Z,6.74
2017-04-28T04:59:27.029Z,6.74
2017-04-28T04:59:53.173Z,6.59
2017-04-28T05:00:19.304Z,6.74
2017-04-28T05:00:45.447Z,6.56
2017-04-28T05:01:11.534Z,6.7
2017-04-28T05:01:37.663Z,6.72
2017-04-28T05:02:03.841Z,6.6
2017-04-28T05:02:29.930Z,6.66
2017-04-28T05:02:56.033Z,6.77
2017-04-28T05:03:22.211Z,6.63
2017-04-28T05:03:48.372Z,6.63
2017-04-28T05:04:14.547Z,6.75
2017-04-28T05:04:40.677Z,6.67
2017-04-28T05:05:06.793Z,6.62
2017-04-28T05:05:32.914Z,6.69
2017-04-28T05:05:59.002Z,6.59
2017-04-28T05:06:25.107Z,6.57
2017-04-28T05:06:51.231Z,6.57
2017-04-28T05:07:17.341Z,6.6
2017-04-28T05:07:43.468Z,6.74
2017-04-28T05:08:09.599Z,6.77
2017-04-28T05:08:35.707Z,6.88
2017-04-28T05:09:01.830Z,6.84
2017-04-28T05:09:28.038Z,6.78
2017-04-28T05:09:54.125Z,6.79
2017-04-28T05:10:20.291Z,6.82
2017-04-28T05:10:46.413Z,6.84
2017-04-28T05:11:12.542Z,6.84
2017-04-28T05:11:38.671Z,6.88
2017-04-28T05:12:04.757Z,6.95
2017-04-28T05:12:30.905Z,6.85
2017-04-28T05:12:57.065Z,6.77
2017-04-28T05:13:23.178Z,6.77
2017-04-28T05:13:49.274Z,6.92
2017-04-28T05:14:15.459Z,7.05
2017-04-28T05:14:41.573Z,6.99
2017-04-28T05:15:07.660Z,6.96
2017-04-28T05:15:33.767Z,6.93
2017-04-28T05:15:59.862Z,6.99
2017-04-28T05:16:26.000Z,6.96
2017-04-28T05:16:52.132Z,6.97
2017-04-28T05:17:18.311Z,7.05
2017-04-28T05:17:44.446Z,7.06
2017-04-28T05:18:10.545Z,7.11
2017-04-28T05:18:36.702Z,7.07
2017-04-28T05:19:02.836Z,7.14
2017-04-28T05:19:28.982Z,7.15
2017-04-28T05:19:55.087Z,7.1
2017-04-28T05:20:21.226Z,7.2
2017-04-28T05:20:47.344Z,7.15
2017-04-28T05:21:13.474Z,7.21
2017-04-28T05:21:39.563Z,7.24
2017-04-28T05:22:05.690Z,7.15
2017-04-28T05:22:31.774Z,7.28
2017-04-28T05:22:57.871Z,7.35
2017-04-28T05:23:24.005Z,7.45
2017-04-28T05:23:50.118Z,7.31
2017-04-28T05:24:16.238Z,7.42
2017-04-28T05:24:42.422Z,7.38
2017-04-28T05:25:08.591Z,7.39
2017-04-28T05:25:34.702Z,7.42
2017-04-28T05:26:00.892Z,7.47
2017-04-28T05:26:27.012Z,7.48
2017-04-28T05:26:53.100Z,7.45
2017-04-28T05:27:19.203Z,7.33
2017-04-28T05:27:45.294Z,7.4
2017-04-28T05:28:11.425Z,7.4
2017-04-28T05:28:37.542Z,7.45
2017-04-28T05:29:03.655Z,7.42
2017-04-28T05:29:29.791Z,7.43
2017-04-28T05:29:55.911Z,7.42
2017-04-28T05:30:22.000Z,7.43
2017-04-28T05:30:48.160Z,7.47
2017-04-28T05:31:14.257Z,7.47
2017-04-28T05:31:40.345Z,7.51
2017-04-28T05:32:06.471Z,7.58
2017-04-28T05:32:32.574Z,7.57
2017-04-28T05:32:58.741Z,7.57
2017-04-28T05:33:24.892Z,7.53
2017-04-28T05:33:51.000Z,7.48
2017-04-28T05:34:17.104Z,7.6
2017-04-28T05:34:43.202Z,7.42
2017-04-28T05:35:09.315Z,7.42
2017-04-28T05:35:35.445Z,7.4
2017-04-28T05:36:01.576Z,7.43
2017-04-28T05:36:27.659Z,7.43
2017-04-28T05:36:53.757Z,7.51
2017-04-28T05:37:19.915Z,7.42
2017-04-28T05:37:46.055Z,7.39
2017-04-28T05:38:12.222Z,7.43
2017-04-28T05:38:38.368Z,7.47
2017-04-28T05:39:04.497Z,7.4
2017-04-28T05:39:30.630Z,7.48
2017-04-28T05:39:56.764Z,7.53
2017-04-28T05:40:22.887Z,7.57
2017-04-28T05:40:48.993Z,7.53
2017-04-28T05:41:15.081Z,7.53
2017-04-28T05:41:41.197Z,7.51
2017-04-28T05:42:07.355Z,7.53
2017-04-28T05:42:33.444Z,7.56
2017-04-28T05:42:59.582Z,7.6
2017-04-28T05:43:25.717Z,7.58
2017-04-28T05:43:51.887Z,7.53
2017-04-28T05:44:18.012Z,7.67
2017-04-28T05:44:44.154Z,7.67
2017-04-28T05:45:10.247Z,7.76
2017-04-28T05:45:36.378Z,7.76
2017-04-28T05:46:02.520Z,7.8
2017-04-28T05:46:28.607Z,7.85
2017-04-28T05:46:54.715Z,7.87
2017-04-28T05:47:20.835Z,7.8
2017-04-28T05:47:47.020Z,7.77
2017-04-28T05:48:13.150Z,7.94
2017-04-28T05:48:39.356Z,7.97
2017-04-28T05:49:05.516Z,7.91
2017-04-28T05:49:31.666Z,7.97